16:37
Airports
History
Links
Donate
Help keep this website running!
PayPal
Bitcoin
This page is community maintained. The information is intended for PC simulator navigation or reference.
Always use approved charts for navigation.
DRZR
ZINDER
ZINDER (DRZR)
Zinder, Zinder, Niger
(C)
Lat/Lng:13° 46' 44.39" N / 8° 59' 1.54" E
13.778996 / 8.983761
Elevation:1516'ft / 462mMSL
ID / ICAO:DRZR
Runways:1
Longest:05-23
Asphalt 1,835m / 6,019ft
Controlled:Yes
METAR16:00 GMT 2017-09-23
Altimeter: 29.85
Visibility: 6.2 statute miles
Wind: 4 knots (from 340°)
Temp: 37°c / 99°f
Humidity: 27.2%

METAR: DRZR 231600Z 34004KT 9999 FEW040 37/15 Q1011

(Powered by phpweather)
Airport Radio Frequencies
Tower: 118.3
Nearby VORs <50NM
Nearby NDBs
Runway 05 / 23
Dimensions:1834.6 x 29.9m 6019' x 98'ft
Surface:Asphalt
Edge Lights:Medium intensity
Runway 05 [A]Runway 23 [B]
Heading:053°TH 233°TH
Lat:
Lng:
13° 46' 26.57"N
8° 58' 37.12"E
13° 47' 2.2"N
8° 59' 25.96"E
User Notes and Comments
13° 46' 44.39" N / 8° 59' 1.54" E
Distance To
Airport ID:
Nearby Airports
(C) KATSINA 103.8 NM
DN57 WSW 239°
(C) MALLAM AMINU INTL 123.6 NM
DNKN ( WX ) SSW 194°
(U) MARADI 126.1 NM
DRRM ( WX ) W 261°
4 GUSAU 189.9 NM
DNGU SW 234°
(C) ZARIA 202.9 NM
DNZA ( WX ) SSW 205°
(C) MANU DAYAK 229.7 NM
DRZA ( WX ) NNW 343°
(U) KADUNA 240.8 NM
DNKA ( WX ) SSW 207°
VFR Chart
Flight Planning at SkyVector.com